createdAt,value
2023-04-21T00:01:55.130Z,14.23
2023-04-21T00:04:58.382Z,15.30
2023-04-21T00:08:02.548Z,13.70
2023-04-21T00:11:05.454Z,16.00
2023-04-21T00:14:08.205Z,15.17
2023-04-21T00:17:10.968Z,16.97
2023-04-21T00:20:14.484Z,14.50
2023-04-21T00:23:18.606Z,15.23
2023-04-21T00:26:21.396Z,15.43
2023-04-21T00:29:24.124Z,15.03
2023-04-21T00:32:26.943Z,16.30
2023-04-21T00:35:30.809Z,15.27
2023-04-21T00:38:34.953Z,14.70
2023-04-21T00:41:39.813Z,14.50
2023-04-21T00:44:42.560Z,15.30
2023-04-21T00:47:45.393Z,14.23
2023-04-21T00:50:48.196Z,15.60
2023-04-21T00:53:52.599Z,14.50
2023-04-21T00:56:58.387Z,15.67
2023-04-21T01:00:01.189Z,14.83
2023-04-21T01:03:04.265Z,15.37
2023-04-21T01:06:07.964Z,14.57
2023-04-21T01:09:12.640Z,14.40
2023-04-21T01:12:15.458Z,14.40
2023-04-21T01:15:19.077Z,14.43
2023-04-21T01:18:22.046Z,13.53
2023-04-21T01:21:24.951Z,14.77
2023-04-21T01:24:39.120Z,14.07
2023-04-21T01:27:41.964Z,14.37
2023-04-21T01:30:44.743Z,15.10
2023-04-21T01:33:47.533Z,14.47
2023-04-21T01:36:50.465Z,14.93
2023-04-21T01:39:57.857Z,14.53
2023-04-21T01:43:00.644Z,15.17
2023-04-21T01:46:03.655Z,14.10
2023-04-21T01:49:06.452Z,13.70
2023-04-21T01:52:10.264Z,14.27
2023-04-21T01:55:14.766Z,14.67
2023-04-21T01:58:17.490Z,14.73
2023-04-21T02:01:20.247Z,13.17
2023-04-21T02:04:23.251Z,14.50
2023-04-21T02:07:26.238Z,15.00
2023-04-21T02:10:30.810Z,14.47
2023-04-21T02:13:33.589Z,15.50
2023-04-21T02:16:36.404Z,13.60
2023-04-21T02:19:39.272Z,14.77
2023-04-21T02:22:42.126Z,14.27
2023-04-21T02:25:46.250Z,14.20
2023-04-21T02:28:49.638Z,14.23
2023-04-21T02:32:01.199Z,13.67
2023-04-21T02:35:08.741Z,13.87
2023-04-21T02:38:11.488Z,14.30
2023-04-21T02:41:15.638Z,13.30
2023-04-21T02:44:18.459Z,14.23
2023-04-21T02:47:21.391Z,13.93
2023-04-21T02:50:24.338Z,16.13
2023-04-21T02:53:27.245Z,15.57
2023-04-21T02:56:31.817Z,15.03
2023-04-21T02:59:34.623Z,15.47
2023-04-21T03:02:37.535Z,16.70
2023-04-21T03:05:40.387Z,16.87
2023-04-21T03:08:43.245Z,15.53
2023-04-21T03:11:47.349Z,14.67
2023-04-21T03:14:50.130Z,15.70
2023-04-21T03:17:52.929Z,15.17
2023-04-21T03:21:01.426Z,15.80
2023-04-21T03:24:04.454Z,16.43
2023-04-21T03:27:10.450Z,15.10
2023-04-21T03:30:14.233Z,15.90
2023-04-21T03:33:17.032Z,17.13
2023-04-21T03:36:19.839Z,15.10
2023-04-21T03:39:22.864Z,15.40
2023-04-21T03:42:27.118Z,16.30
2023-04-21T03:45:29.878Z,15.47
2023-04-21T03:48:33.136Z,14.80
2023-04-21T03:51:36.021Z,16.20
2023-04-21T03:54:38.793Z,15.77
2023-04-21T03:57:43.803Z,15.17
2023-04-21T04:00:46.562Z,15.27
2023-04-21T04:03:49.448Z,16.90
2023-04-21T04:06:52.464Z,16.33
2023-04-21T04:09:55.322Z,15.37
2023-04-21T04:12:59.437Z,15.13
2023-04-21T04:16:02.267Z,14.83
2023-04-21T04:19:05.107Z,16.80
2023-04-21T04:22:07.970Z,14.93
2023-04-21T04:25:12.759Z,14.90
2023-04-21T04:28:16.864Z,16.33
2023-04-21T04:31:19.746Z,15.93
2023-04-21T04:34:24.453Z,16.23
2023-04-21T04:37:27.268Z,16.87
2023-04-21T04:40:30.409Z,16.13
2023-04-21T04:43:36.893Z,17.47
2023-04-21T04:46:40.752Z,17.97
2023-04-21T04:49:43.578Z,14.73
2023-04-21T04:52:47.425Z,15.83
2023-04-21T04:55:50.264Z,16.43
2023-04-21T04:58:54.363Z,17.17
2023-04-21T05:01:57.301Z,15.97
2023-04-21T05:05:00.223Z,17.30
2023-04-21T05:08:03.102Z,16.13
2023-04-21T05:11:06.744Z,15.63
2023-04-21T05:14:10.862Z,16.40
2023-04-21T05:17:13.624Z,17.37
2023-04-21T05:20:17.176Z,15.83
2023-04-21T05:23:20.090Z,17.27
2023-04-21T05:26:22.920Z,16.70
2023-04-21T05:29:27.041Z,17.73
2023-04-21T05:32:30.319Z,17.53
2023-04-21T05:35:33.888Z,16.70
2023-04-21T05:38:38.232Z,18.90
2023-04-21T05:41:40.994Z,18.70
2023-04-21T05:44:45.402Z,19.07
2023-04-21T05:47:48.289Z,21.30
2023-04-21T05:50:51.107Z,20.53
2023-04-21T05:53:53.883Z,19.33
2023-04-21T05:56:56.953Z,19.77
2023-04-21T06:00:01.077Z,19.77
2023-04-21T06:03:04.439Z,19.70
2023-04-21T06:06:09.125Z,19.97
2023-04-21T06:09:11.908Z,18.87
2023-04-21T06:12:14.666Z,19.43
2023-04-21T06:15:18.897Z,20.03
2023-04-21T06:18:21.676Z,20.70
2023-04-21T06:21:24.462Z,19.70
2023-04-21T06:24:27.226Z,17.57
2023-04-21T06:27:29.992Z,17.67
2023-04-21T06:30:34.179Z,18.97
2023-04-21T06:33:37.029Z,17.53
2023-04-21T06:36:39.798Z,18.33
2023-04-21T06:39:42.546Z,18.13
2023-04-21T06:42:45.456Z,18.17
2023-04-21T06:45:49.597Z,17.57
2023-04-21T06:48:52.355Z,16.77
2023-04-21T06:51:55.562Z,17.67
2023-04-21T06:54:58.365Z,18.37
2023-04-21T06:58:01.215Z,17.07
2023-04-21T07:01:05.417Z,16.70
2023-04-21T07:04:08.372Z,16.83
2023-04-21T07:07:11.283Z,15.77
2023-04-21T07:10:19.056Z,16.60
2023-04-21T07:13:22.068Z,16.27
2023-04-21T07:16:26.255Z,14.73
2023-04-21T07:19:29.058Z,14.17
2023-04-21T07:22:31.870Z,16.27
2023-04-21T07:25:34.662Z,15.60
2023-04-21T07:28:38.107Z,13.27
2023-04-21T07:31:42.375Z,15.20
2023-04-21T07:34:47.038Z,13.63
2023-04-21T07:37:49.820Z,13.40
2023-04-21T07:40:52.698Z,12.97
2023-04-21T07:43:55.514Z,13.00
2023-04-21T07:46:59.613Z,11.33
2023-04-21T07:50:02.618Z,12.67
2023-04-21T07:53:05.460Z,12.03
2023-04-21T07:56:08.752Z,12.83
2023-04-21T07:59:11.530Z,13.07
2023-04-21T08:02:16.063Z,13.10
2023-04-21T08:05:19.224Z,12.27
2023-04-21T08:08:22.345Z,10.77
2023-04-21T08:11:25.108Z,12.23
2023-04-21T08:14:28.349Z,9.67
2023-04-21T08:17:32.677Z,9.30
2023-04-21T08:20:35.750Z,11.23
2023-04-21T08:23:38.621Z,9.40
2023-04-21T08:26:41.484Z,9.97
2023-04-21T08:29:44.410Z,10.07
2023-04-21T08:32:48.553Z,9.63
2023-04-21T08:36:02.301Z,9.33
2023-04-21T08:39:08.653Z,11.07
2023-04-21T08:42:11.464Z,9.80
2023-04-21T08:45:14.293Z,9.60
2023-04-21T08:48:21.612Z,8.60
2023-04-21T08:51:25.270Z,8.93
2023-04-21T08:54:30.001Z,8.53
2023-04-21T08:57:32.963Z,8.10
2023-04-21T09:00:35.789Z,8.20
2023-04-21T09:03:40.065Z,8.83
2023-04-21T09:06:44.077Z,7.90
2023-04-21T09:09:53.634Z,7.77
2023-04-21T09:12:56.445Z,8.50
2023-04-21T09:16:00.059Z,8.00
2023-04-21T09:19:04.601Z,9.47
2023-04-21T09:22:07.645Z,8.07
2023-04-21T09:25:10.851Z,8.80
2023-04-21T09:28:15.373Z,9.20
2023-04-21T09:31:20.317Z,8.10
2023-04-21T09:34:25.945Z,7.37
2023-04-21T09:37:33.537Z,8.97
2023-04-21T09:40:36.370Z,8.93
2023-04-21T09:43:39.163Z,9.80
2023-04-21T09:46:44.762Z,9.07
2023-04-21T09:49:52.744Z,8.27
2023-04-21T09:52:57.377Z,9.10
2023-04-21T09:56:00.762Z,9.57
2023-04-21T09:59:08.223Z,9.73
2023-04-21T10:02:13.410Z,10.40
2023-04-21T10:05:17.959Z,8.57
2023-04-21T10:08:21.847Z,9.33
2023-04-21T10:11:25.048Z,9.80
2023-04-21T10:14:27.892Z,9.23
2023-04-21T10:17:31.684Z,8.40
2023-04-21T10:20:52.296Z,8.50
2023-04-21T10:23:55.280Z,8.57
2023-04-21T10:27:01.642Z,7.37
2023-04-21T10:30:20.096Z,8.10
2023-04-21T10:33:24.982Z,7.67
2023-04-21T10:36:29.109Z,6.73
2023-04-21T10:39:35.817Z,5.40
2023-04-21T10:42:38.678Z,4.77
2023-04-21T10:45:41.537Z,4.77
2023-04-21T10:48:53.350Z,6.07
2023-04-21T10:52:12.237Z,7.07
2023-04-21T10:55:16.117Z,5.23
2023-04-21T10:58:19.482Z,6.83
2023-04-21T11:01:22.378Z,8.00
2023-04-21T11:04:25.875Z,7.33
2023-04-21T11:07:31.404Z,8.50
2023-04-21T11:10:44.065Z,7.93
2023-04-21T11:13:47.676Z,8.77
2023-04-21T11:16:51.110Z,10.50
2023-04-21T11:19:55.323Z,10.50
2023-04-21T11:22:59.448Z,10.20
2023-04-21T11:26:02.265Z,9.63
2023-04-21T11:29:06.362Z,9.67
2023-04-21T11:32:10.081Z,9.63
2023-04-21T11:35:12.884Z,9.13
2023-04-21T11:38:18.612Z,9.05
2023-04-21T11:41:25.074Z,10.02
2023-04-21T11:44:36.030Z,9.98
2023-04-21T11:47:39.976Z,8.77
2023-04-21T11:50:48.507Z,9.15
2023-04-21T11:53:52.771Z,7.38
2023-04-21T11:56:55.864Z,8.85
2023-04-21T12:00:00.423Z,7.15
2023-04-21T12:03:03.308Z,7.72
2023-04-21T12:06:07.489Z,7.53
2023-04-21T12:09:18.460Z,6.55
2023-04-21T12:12:22.944Z,8.38
2023-04-21T12:15:25.899Z,8.48
2023-04-21T12:18:29.188Z,8.38
2023-04-21T12:21:31.972Z,7.57
2023-04-21T12:24:36.834Z,7.45
2023-04-21T12:27:48.316Z,8.57
2023-04-21T12:30:51.090Z,6.18
2023-04-21T12:33:53.940Z,6.05
2023-04-21T12:36:56.949Z,6.53
2023-04-21T12:40:01.081Z,7.80
2023-04-21T12:43:03.857Z,7.82
2023-04-21T12:46:06.679Z,9.38
2023-04-21T12:49:11.063Z,8.00
2023-04-21T12:52:13.916Z,5.47
2023-04-21T12:55:18.309Z,5.85
2023-04-21T12:58:21.407Z,4.85
2023-04-21T13:01:24.270Z,4.93
2023-04-21T13:04:27.361Z,3.85
2023-04-21T13:07:31.309Z,4.15
2023-04-21T13:10:35.484Z,2.95
2023-04-21T13:13:39.005Z,2.30
2023-04-21T13:16:42.015Z,2.00
2023-04-21T13:19:44.971Z,1.85
2023-04-21T13:22:47.781Z,1.70
2023-04-21T13:25:52.779Z,2.13
2023-04-21T13:28:55.680Z,1.88
2023-04-21T13:31:58.484Z,1.95
2023-04-21T13:35:01.255Z,1.48
2023-04-21T13:38:04.049Z,1.42
2023-04-21T13:41:08.271Z,1.50
2023-04-21T13:44:11.074Z,1.70
2023-04-21T13:47:13.998Z,1.13
2023-04-21T13:50:16.784Z,1.33
2023-04-21T13:53:21.330Z,1.48
2023-04-21T13:56:25.848Z,1.48
2023-04-21T13:59:28.949Z,2.00
2023-04-21T14:02:31.944Z,2.70
2023-04-21T14:05:35.247Z,1.98
2023-04-21T14:08:38.096Z,1.80
2023-04-21T14:11:42.235Z,2.22
2023-04-21T14:14:45.134Z,2.13
2023-04-21T14:17:47.963Z,2.13
2023-04-21T14:20:50.871Z,2.20
2023-04-21T14:23:53.815Z,2.92
2023-04-21T14:26:58.056Z,4.32
2023-04-21T14:30:00.857Z,3.97
2023-04-21T14:33:03.766Z,2.72
2023-04-21T14:36:07.118Z,2.55
2023-04-21T14:39:10.189Z,2.20
2023-04-21T14:42:14.395Z,2.03
2023-04-21T14:45:17.261Z,1.52
2023-04-21T14:48:20.093Z,1.52
2023-04-21T14:51:22.907Z,1.92
2023-04-21T14:54:25.880Z,1.33
2023-04-21T14:57:30.022Z,1.83
2023-04-21T15:00:34.612Z,1.48
2023-04-21T15:03:38.178Z,1.63
2023-04-21T15:06:41.109Z,1.33
2023-04-21T15:09:45.758Z,1.40
2023-04-21T15:12:49.962Z,1.23
2023-04-21T15:15:52.824Z,1.10
2023-04-21T15:18:55.936Z,1.70
2023-04-21T15:21:59.003Z,1.48
2023-04-21T15:25:01.855Z,1.48
2023-04-21T15:28:07.135Z,1.30
2023-04-21T15:31:10.374Z,1.50
2023-04-21T15:34:13.277Z,1.00
2023-04-21T15:37:17.483Z,1.30
2023-04-21T15:40:20.337Z,1.40
2023-04-21T15:43:25.836Z,1.83
2023-04-21T15:46:28.875Z,1.27
2023-04-21T15:49:31.743Z,1.30
2023-04-21T15:52:37.077Z,1.20
2023-04-21T15:55:39.916Z,1.58
2023-04-21T15:58:44.261Z,1.40
2023-04-21T16:01:47.215Z,1.25
2023-04-21T16:04:50.205Z,1.30
2023-04-21T16:07:53.636Z,1.17
2023-04-21T16:10:57.162Z,1.25
2023-04-21T16:14:01.360Z,1.20
2023-04-21T16:17:04.684Z,1.35
2023-04-21T16:20:08.806Z,1.42
2023-04-21T16:23:11.649Z,1.30
2023-04-21T16:26:14.471Z,1.30
2023-04-21T16:29:19.732Z,1.23
2023-04-21T16:32:22.608Z,1.63
2023-04-21T16:35:25.584Z,1.50
2023-04-21T16:38:28.386Z,1.00
2023-04-21T16:41:31.300Z,1.35
2023-04-21T16:44:35.871Z,1.30
2023-04-21T16:47:42.101Z,1.35
2023-04-21T16:50:45.595Z,1.45
2023-04-21T16:53:48.403Z,1.25
2023-04-21T16:56:51.319Z,1.20
2023-04-21T16:59:55.549Z,1.10
2023-04-21T17:02:58.690Z,1.25
2023-04-21T17:06:04.502Z,1.70
2023-04-21T17:09:08.013Z,1.42
2023-04-21T17:12:10.833Z,1.45
2023-04-21T17:15:15.339Z,3.80
2023-04-21T17:18:18.359Z,3.40
2023-04-21T17:21:21.290Z,3.75
2023-04-21T17:24:24.177Z,2.50
2023-04-21T17:27:27.054Z,3.72
2023-04-21T17:30:31.302Z,2.83
2023-04-21T17:33:34.085Z,1.88
2023-04-21T17:36:39.368Z,1.65
2023-04-21T17:39:42.246Z,2.03
2023-04-21T17:42:45.244Z,1.70
2023-04-21T17:45:49.520Z,1.92
2023-04-21T17:48:52.322Z,2.22
2023-04-21T17:51:55.094Z,1.98
2023-04-21T17:54:57.892Z,1.90
2023-04-21T17:58:00.705Z,2.20
2023-04-21T18:01:04.860Z,1.80
2023-04-21T18:04:07.893Z,1.98
2023-04-21T18:07:10.986Z,1.92
2023-04-21T18:10:13.964Z,2.00
2023-04-21T18:13:16.817Z,1.92
2023-04-21T18:16:20.989Z,2.22
2023-04-21T18:19:24.276Z,2.25
2023-04-21T18:22:27.358Z,2.17
2023-04-21T18:25:41.297Z,2.53
2023-04-21T18:28:45.126Z,2.53
2023-04-21T18:31:49.420Z,2.67
2023-04-21T18:34:52.251Z,2.95
2023-04-21T18:37:55.193Z,3.38
2023-04-21T18:40:58.031Z,3.33
2023-04-21T18:44:00.801Z,3.92
2023-04-21T18:47:05.088Z,3.80
2023-04-21T18:50:09.439Z,3.70
2023-04-21T18:53:12.216Z,4.43
2023-04-21T18:56:15.152Z,4.33
2023-04-21T18:59:18.664Z,4.43
2023-04-21T19:02:23.015Z,4.90
2023-04-21T19:05:25.959Z,6.03
2023-04-21T19:08:41.442Z,5.37
2023-04-21T19:11:46.083Z,5.87
2023-04-21T19:14:49.608Z,5.47
2023-04-21T19:17:54.890Z,3.93
2023-04-21T19:20:57.741Z,2.40
2023-04-21T19:24:00.603Z,1.33
2023-04-21T19:27:05.405Z,1.07
2023-04-21T19:30:09.574Z,0.50
2023-04-21T19:33:13.796Z,0.50
2023-04-21T19:36:16.733Z,0.50
2023-04-21T19:39:19.541Z,0.50
2023-04-21T19:42:22.317Z,0.60
2023-04-21T19:45:25.447Z,1.03
2023-04-21T19:48:29.651Z,0.63
2023-04-21T19:51:32.698Z,1.00
2023-04-21T19:54:35.536Z,0.43
2023-04-21T19:57:38.588Z,0.30
2023-04-21T20:00:41.699Z,0.30
2023-04-21T20:03:47.739Z,0.40
2023-04-21T20:06:50.781Z,0.47
2023-04-21T20:09:53.563Z,0.70
2023-04-21T20:12:56.384Z,0.60
2023-04-21T20:15:59.229Z,0.70
2023-04-21T20:19:04.586Z,0.83
2023-04-21T20:22:07.964Z,1.00
2023-04-21T20:25:12.776Z,2.23
2023-04-21T20:28:16.467Z,1.63
2023-04-21T20:31:23.507Z,1.77
2023-04-21T20:34:27.788Z,1.47
2023-04-21T20:37:33.441Z,2.30
2023-04-21T20:40:36.414Z,1.33
2023-04-21T20:43:40.306Z,1.23
2023-04-21T20:46:43.200Z,1.40
2023-04-21T20:49:47.895Z,1.33
2023-04-21T20:52:50.985Z,0.80
2023-04-21T20:55:53.777Z,0.57
2023-04-21T20:58:56.635Z,0.80
2023-04-21T21:01:59.430Z,0.77
2023-04-21T21:05:04.171Z,0.80
2023-04-21T21:08:07.956Z,0.70
2023-04-21T21:11:11.349Z,0.70
2023-04-21T21:14:14.274Z,0.63
2023-04-21T21:17:17.146Z,0.97
2023-04-21T21:20:21.334Z,0.80
2023-04-21T21:23:24.097Z,0.73
2023-04-21T21:26:27.128Z,0.70
2023-04-21T21:29:30.274Z,0.50
2023-04-21T21:32:33.086Z,0.63
2023-04-21T21:35:37.232Z,0.60
2023-04-21T21:38:40.360Z,0.50
2023-04-21T21:41:43.135Z,1.03
2023-04-21T21:44:45.927Z,0.77
2023-04-21T21:47:48.746Z,1.00
2023-04-21T21:50:52.857Z,0.80
2023-04-21T21:53:55.734Z,0.73
2023-04-21T21:56:58.836Z,0.80
2023-04-21T22:00:02.128Z,0.90
2023-04-21T22:03:05.382Z,0.60
2023-04-21T22:06:09.723Z,0.73
2023-04-21T22:09:12.549Z,0.90
2023-04-21T22:12:15.668Z,0.63
2023-04-21T22:15:19.606Z,1.33
2023-04-21T22:18:22.372Z,1.47
2023-04-21T22:21:27.383Z,0.80
2023-04-21T22:24:30.163Z,1.03
2023-04-21T22:27:33.703Z,1.30
2023-04-21T22:30:36.517Z,1.23
2023-04-21T22:33:39.357Z,1.53
2023-04-21T22:36:43.494Z,1.60
2023-04-21T22:39:46.401Z,1.10
2023-04-21T22:42:49.207Z,1.40
2023-04-21T22:45:52.015Z,1.27
2023-04-21T22:48:57.083Z,1.50
2023-04-21T22:52:01.484Z,1.00
2023-04-21T22:55:05.197Z,1.43
2023-04-21T22:58:07.987Z,0.80
2023-04-21T23:01:10.923Z,1.10
2023-04-21T23:04:13.920Z,1.37
2023-04-21T23:07:18.185Z,1.47
2023-04-21T23:10:22.196Z,1.20
2023-04-21T23:13:25.353Z,1.57
2023-04-21T23:16:28.141Z,1.13
2023-04-21T23:19:30.923Z,1.43
2023-04-21T23:22:35.182Z,1.30
2023-04-21T23:25:37.932Z,1.43
2023-04-21T23:28:40.718Z,1.17
2023-04-21T23:31:43.625Z,1.60
2023-04-21T23:34:46.500Z,1.43
2023-04-21T23:37:50.631Z,1.30
2023-04-21T23:40:53.420Z,1.17
2023-04-21T23:43:56.193Z,1.07
2023-04-21T23:46:59.082Z,1.27
2023-04-21T23:50:01.828Z,1.27
2023-04-21T23:53:05.998Z,1.30
2023-04-21T23:56:09.014Z,1.77
2023-04-21T23:59:11.815Z,1.23
